Main page
METAR-TAF:

METAR-TAF

Airports :

Luton Airport

Luton, England

latitude: 51-52N, longitude: 000-22W, elevation: 160 m

Current weather observation

The report was made 34 minutes ago, at 12:20 UTC
Wind 7 kt from the West, varying between Southwest and Northwest
Temperature 25°C
Humidity 54%
Pressure 1020 hPa
Visibility 10 km or more
Broken clouds at a height of 3600 ft

METAR: EGGW 141220Z AUTO 28007KT 230V310 9999 BKN036 25/15 Q1020

Time: 13:54 (12:54 UTC)

Forecast

The report was made 1 hour and 52 minutes ago, at 11:02 UTC
Forecast valid from 14 at 12 UTC to 15 at 12 UTC
Wind 8 kt from the West/Northwest
Visibility 10 km or more
Scattered clouds at a height of 3500 ft
Becoming
from 14 at 13 UTC to 14 at 16 UTC
Wind 10 kt from the North
Becoming
from 15 at 09 UTC to 15 at 12 UTC
Wind 3 kt from variable directions

TAF: EGGW 141102Z 1412/1512 29008KT 9999 SCT035 BECMG 1413/1416 35010KT BECMG 1509/1512 VRB03KT

Weather observations and forecasts of more than 4000 airports (METAR and TAF reports).

The available stations are represented by yellow and red dots on the map.

Hover mouse over dot to see the name of the station.

Then click to see weather observations and forecasts.

To change the map : click on the green buttons with a black cross to zoom in, on the green button with a dash to zoom out, or on the green arrows for adjacent maps.


METAR-TAF: